createdAt,value
2023-03-20T00:00:41.202Z,65.58
2023-03-20T00:03:16.682Z,64.75
2023-03-20T00:05:47.188Z,64.59
2023-03-20T00:08:19.849Z,64.98
2023-03-20T00:10:50.726Z,64.94
2023-03-20T00:13:28.753Z,65.67
2023-03-20T00:16:05.709Z,66.28
2023-03-20T00:18:39.466Z,66.26
2023-03-20T00:21:14.922Z,66.18
2023-03-20T00:23:44.557Z,66.43
2023-03-20T00:26:14.351Z,66.32
2023-03-20T00:28:45.765Z,66.14
2023-03-20T00:31:30.839Z,66.68
2023-03-20T00:34:10.282Z,66.90
2023-03-20T00:36:47.803Z,66.61
2023-03-20T00:39:25.570Z,67.20
2023-03-20T00:41:57.376Z,67.14
2023-03-20T00:44:28.024Z,67.57
2023-03-20T00:47:13.577Z,66.79
2023-03-20T00:49:45.783Z,66.83
2023-03-20T00:52:23.004Z,67.48
2023-03-20T00:54:54.082Z,67.74
2023-03-20T00:57:25.643Z,67.86
2023-03-20T00:59:58.203Z,67.28
2023-03-20T01:02:34.764Z,67.05
2023-03-20T01:05:06.739Z,67.07
2023-03-20T01:07:37.948Z,67.36
2023-03-20T01:10:08.504Z,67.59
2023-03-20T01:12:37.708Z,67.72
2023-03-20T01:15:25.327Z,68.01
2023-03-20T01:17:56.074Z,66.67
2023-03-20T01:20:27.194Z,67.26
2023-03-20T01:22:57.552Z,67.32
2023-03-20T01:25:31.138Z,67.17
2023-03-20T01:28:00.116Z,67.29
2023-03-20T01:30:36.554Z,67.71
2023-03-20T01:33:26.508Z,67.51
2023-03-20T01:35:59.537Z,67.80
2023-03-20T01:38:36.885Z,68.07
2023-03-20T01:41:16.734Z,67.67
2023-03-20T01:43:53.440Z,67.89
2023-03-20T01:46:31.506Z,67.48
2023-03-20T01:49:48.577Z,67.76
2023-03-20T01:52:27.731Z,68.09
2023-03-20T01:54:56.145Z,68.18
2023-03-20T01:57:29.617Z,68.15
2023-03-20T02:00:05.866Z,68.10
2023-03-20T02:03:05.458Z,67.92
2023-03-20T02:05:55.283Z,68.29
2023-03-20T02:09:10.660Z,68.05
2023-03-20T02:11:52.215Z,68.31
2023-03-20T02:14:24.151Z,68.40
2023-03-20T02:17:13.544Z,68.19
2023-03-20T02:20:02.228Z,68.36
2023-03-20T02:23:07.118Z,68.15
2023-03-20T02:26:28.819Z,68.63
2023-03-20T02:29:23.573Z,68.39
2023-03-20T02:32:27.549Z,68.58
2023-03-20T02:35:48.628Z,68.67
2023-03-20T02:38:54.376Z,69.31
2023-03-20T02:41:28.204Z,68.87
2023-03-20T02:44:05.104Z,69.34
2023-03-20T02:46:40.479Z,69.96
2023-03-20T02:49:26.080Z,70.21
2023-03-20T02:52:04.841Z,70.75
2023-03-20T02:54:57.919Z,71.61
2023-03-20T02:57:38.193Z,71.21
2023-03-20T03:00:17.691Z,71.85
2023-03-20T03:02:50.291Z,71.90
2023-03-20T03:05:25.410Z,71.87
2023-03-20T03:07:57.693Z,72.36
2023-03-20T03:10:33.600Z,72.76
2023-03-20T03:13:13.665Z,72.49
2023-03-20T03:15:52.289Z,72.60
2023-03-20T03:18:25.500Z,73.01
2023-03-20T03:21:00.274Z,72.88
2023-03-20T03:23:33.744Z,73.00
2023-03-20T03:26:11.017Z,72.47
2023-03-20T03:28:41.976Z,72.55
2023-03-20T03:31:14.357Z,72.46
2023-03-20T03:33:50.482Z,72.48
2023-03-20T03:36:29.693Z,72.85
2023-03-20T03:39:05.545Z,72.72
2023-03-20T03:41:44.198Z,73.03
2023-03-20T03:44:19.707Z,72.90
2023-03-20T03:46:55.017Z,73.46
2023-03-20T03:49:29.000Z,73.43
2023-03-20T03:52:03.718Z,73.66
2023-03-20T03:54:39.167Z,73.30
2023-03-20T03:57:38.523Z,73.32
2023-03-20T04:00:14.548Z,73.06
2023-03-20T04:02:46.410Z,73.68
2023-03-20T04:05:15.466Z,74.26
2023-03-20T04:07:48.232Z,74.45
2023-03-20T04:10:22.668Z,74.89
2023-03-20T04:12:55.308Z,75.53
2023-03-20T04:15:27.708Z,75.09
2023-03-20T04:18:05.714Z,74.66
2023-03-20T04:20:41.203Z,74.77
2023-03-20T04:23:09.290Z,74.76
2023-03-20T04:25:39.242Z,74.93
2023-03-20T04:28:14.518Z,75.29
2023-03-20T04:30:58.333Z,74.94
2023-03-20T04:34:00.356Z,75.77
2023-03-20T04:36:58.435Z,75.20
2023-03-20T04:39:45.617Z,75.51
2023-03-20T04:42:15.011Z,75.00
2023-03-20T04:44:48.802Z,75.27
2023-03-20T04:47:20.148Z,75.04
2023-03-20T04:49:49.286Z,76.00
2023-03-20T04:52:21.308Z,75.90
2023-03-20T04:54:53.402Z,75.99
2023-03-20T04:57:23.087Z,76.09
2023-03-20T05:00:08.327Z,75.53
2023-03-20T05:02:37.414Z,75.86
2023-03-20T05:05:12.113Z,76.20
2023-03-20T05:07:41.382Z,76.25
2023-03-20T05:10:21.733Z,76.34
2023-03-20T05:13:15.619Z,76.32
2023-03-20T05:16:06.071Z,76.85
2023-03-20T05:18:55.501Z,77.79
2023-03-20T05:21:48.453Z,77.48
2023-03-20T05:24:33.095Z,77.01
2023-03-20T05:27:25.007Z,77.60
2023-03-20T05:30:14.682Z,77.00
2023-03-20T05:32:55.445Z,77.38
2023-03-20T05:35:42.401Z,77.54
2023-03-20T05:38:23.975Z,77.24
2023-03-20T05:41:16.400Z,77.57
2023-03-20T05:44:12.670Z,77.21
2023-03-20T05:47:10.619Z,77.13
2023-03-20T05:50:33.477Z,77.16
2023-03-20T05:53:21.389Z,77.08
2023-03-20T05:56:20.061Z,77.27
2023-03-20T05:59:13.443Z,77.44
2023-03-20T06:02:12.833Z,77.82
2023-03-20T06:04:58.486Z,77.72
2023-03-20T06:07:51.669Z,78.36
2023-03-20T06:10:23.437Z,77.61
2023-03-20T06:13:01.330Z,80.33
2023-03-20T06:15:32.674Z,80.34
2023-03-20T06:18:15.120Z,80.54
2023-03-20T06:20:44.672Z,80.09
2023-03-20T06:23:16.929Z,80.35
2023-03-20T06:25:53.537Z,80.69
2023-03-20T06:28:23.668Z,80.48
2023-03-20T06:31:04.023Z,80.05
2023-03-20T06:33:32.517Z,81.17
2023-03-20T06:36:11.156Z,80.96
2023-03-20T06:38:44.303Z,80.74
2023-03-20T06:41:31.894Z,80.56
2023-03-20T06:44:07.752Z,80.76
2023-03-20T06:47:08.079Z,79.48
2023-03-20T06:49:36.822Z,78.41
2023-03-20T06:52:16.547Z,79.05
2023-03-20T06:55:06.326Z,78.75
2023-03-20T06:57:35.652Z,78.80
2023-03-20T07:00:13.315Z,78.14
2023-03-20T07:02:46.477Z,78.41
2023-03-20T07:05:26.540Z,77.20
2023-03-20T07:07:59.873Z,77.88
2023-03-20T07:10:35.219Z,77.06
2023-03-20T07:13:09.452Z,77.48
2023-03-20T07:15:53.886Z,77.63
2023-03-20T07:18:36.371Z,76.67
2023-03-20T07:21:08.994Z,75.52
2023-03-20T07:23:39.065Z,76.54
2023-03-20T07:26:15.312Z,75.90
2023-03-20T07:28:45.126Z,75.09
2023-03-20T07:31:35.975Z,75.24
2023-03-20T07:34:26.679Z,75.67
2023-03-20T07:37:06.900Z,74.46
2023-03-20T07:39:41.858Z,74.16
2023-03-20T07:42:39.262Z,74.45
2023-03-20T07:45:16.929Z,73.83
2023-03-20T07:47:49.544Z,73.61
2023-03-20T07:50:20.167Z,73.91
2023-03-20T07:52:51.872Z,73.72
2023-03-20T07:55:34.399Z,73.37
2023-03-20T07:58:18.029Z,71.31
2023-03-20T08:00:48.971Z,71.81
2023-03-20T08:03:19.395Z,71.56
2023-03-20T08:05:53.481Z,71.31
2023-03-20T08:08:23.890Z,71.15
2023-03-20T08:10:55.666Z,70.40
2023-03-20T08:13:26.408Z,70.25
2023-03-20T08:15:58.324Z,69.63
2023-03-20T08:18:28.824Z,69.71
2023-03-20T08:21:10.066Z,69.44
2023-03-20T08:23:41.130Z,69.50
2023-03-20T08:26:13.026Z,69.28
2023-03-20T08:28:52.617Z,68.97
2023-03-20T08:31:24.889Z,69.55
2023-03-20T08:34:05.881Z,69.20
2023-03-20T08:36:35.532Z,69.30
2023-03-20T08:39:04.776Z,68.74
2023-03-20T08:41:36.915Z,68.66
2023-03-20T08:44:07.383Z,68.98
2023-03-20T08:46:40.151Z,68.68
2023-03-20T08:49:11.237Z,68.27
2023-03-20T08:51:43.398Z,67.02
2023-03-20T08:54:11.721Z,68.25
2023-03-20T08:56:40.931Z,67.92
2023-03-20T08:59:11.385Z,67.25
2023-03-20T09:01:50.176Z,67.26
2023-03-20T09:04:22.212Z,67.02
2023-03-20T09:06:53.843Z,66.93
2023-03-20T09:09:30.012Z,66.57
2023-03-20T09:12:10.624Z,65.12
2023-03-20T09:14:43.949Z,65.38
2023-03-20T09:17:13.514Z,65.55
2023-03-20T09:19:44.763Z,65.32
2023-03-20T09:22:14.622Z,64.82
2023-03-20T09:24:44.864Z,65.03
2023-03-20T09:27:16.862Z,65.06
2023-03-20T09:29:57.830Z,64.81
2023-03-20T09:32:32.200Z,63.57
2023-03-20T09:35:00.330Z,63.04
2023-03-20T09:37:29.684Z,62.99
2023-03-20T09:39:58.741Z,62.99
2023-03-20T09:42:43.330Z,63.06
2023-03-20T09:45:26.118Z,61.91
2023-03-20T09:48:05.045Z,61.34
2023-03-20T09:50:40.952Z,61.14
2023-03-20T09:53:16.720Z,60.82
2023-03-20T09:55:49.812Z,60.23
2023-03-20T09:58:24.595Z,59.98
2023-03-20T10:00:58.252Z,60.25
2023-03-20T10:03:38.832Z,59.44
2023-03-20T10:06:11.369Z,59.06
2023-03-20T10:08:45.188Z,58.80
2023-03-20T10:11:29.006Z,57.99
2023-03-20T10:14:11.756Z,58.20
2023-03-20T10:17:06.462Z,57.97
2023-03-20T10:19:48.018Z,58.03
2023-03-20T10:22:27.373Z,58.37
2023-03-20T10:24:58.591Z,58.00
2023-03-20T10:27:30.243Z,56.73
2023-03-20T10:30:20.289Z,56.61
2023-03-20T10:33:02.868Z,56.57
2023-03-20T10:35:43.559Z,55.92
2023-03-20T10:38:27.155Z,56.34
2023-03-20T10:40:57.985Z,55.86
2023-03-20T10:43:43.034Z,56.22
2023-03-20T10:46:14.641Z,56.83
2023-03-20T10:48:47.843Z,55.90
2023-03-20T10:51:31.417Z,54.92
2023-03-20T10:54:03.362Z,54.68
2023-03-20T10:56:36.469Z,54.49
2023-03-20T10:59:09.355Z,54.91
2023-03-20T11:01:38.568Z,54.86
2023-03-20T11:04:09.484Z,54.21
2023-03-20T11:06:47.264Z,53.90
2023-03-20T11:09:23.088Z,53.86
2023-03-20T11:12:07.548Z,53.95
2023-03-20T11:14:39.597Z,53.72
2023-03-20T11:17:09.454Z,53.11
2023-03-20T11:19:43.369Z,52.92
2023-03-20T11:22:27.116Z,53.39
2023-03-20T11:25:01.380Z,53.42
2023-03-20T11:27:34.967Z,52.88
2023-03-20T11:30:09.337Z,52.41
2023-03-20T11:32:45.283Z,51.48
2023-03-20T11:35:39.034Z,50.94
2023-03-20T11:38:15.976Z,50.36
2023-03-20T11:40:52.822Z,50.75
2023-03-20T11:43:26.669Z,50.93
2023-03-20T11:46:05.268Z,50.01
2023-03-20T11:48:43.041Z,50.08
2023-03-20T11:51:24.482Z,50.20
2023-03-20T11:54:04.597Z,50.86
2023-03-20T11:56:38.183Z,49.80
2023-03-20T11:59:19.359Z,50.08
2023-03-20T12:01:53.186Z,51.29
2023-03-20T12:04:31.223Z,51.22
2023-03-20T12:07:04.711Z,51.11
2023-03-20T12:09:59.798Z,52.03
2023-03-20T12:12:41.097Z,52.68
2023-03-20T12:15:22.293Z,53.28
2023-03-20T12:17:55.980Z,54.13
2023-03-20T12:20:41.735Z,53.52
2023-03-20T12:23:28.016Z,52.17
2023-03-20T12:26:04.244Z,52.55
2023-03-20T12:28:39.683Z,53.97
2023-03-20T12:31:29.983Z,53.71
2023-03-20T12:34:05.801Z,54.54
2023-03-20T12:36:39.186Z,53.61
2023-03-20T12:39:14.213Z,53.88
2023-03-20T12:42:06.977Z,54.32
2023-03-20T12:44:43.070Z,54.77
2023-03-20T12:47:28.440Z,55.37
2023-03-20T12:50:05.576Z,54.24
2023-03-20T12:52:45.933Z,53.86
2023-03-20T12:55:37.201Z,51.53
2023-03-20T12:58:21.403Z,52.57
2023-03-20T13:00:56.687Z,51.17
2023-03-20T13:04:02.803Z,49.90
2023-03-20T13:06:39.885Z,48.65
2023-03-20T13:09:31.837Z,49.29
2023-03-20T13:12:10.329Z,49.89
2023-03-20T13:14:47.143Z,50.43
2023-03-20T13:17:23.111Z,51.91
2023-03-20T13:20:06.654Z,52.36
2023-03-20T13:22:43.517Z,52.12
2023-03-20T13:25:26.664Z,52.83
2023-03-20T13:28:09.925Z,53.02
2023-03-20T13:30:48.104Z,51.99
2023-03-20T13:33:27.722Z,51.42
2023-03-20T13:36:07.563Z,51.27
2023-03-20T13:38:42.413Z,50.72
2023-03-20T13:41:12.548Z,50.15
2023-03-20T13:43:48.609Z,50.53
2023-03-20T13:46:25.472Z,51.89
2023-03-20T13:49:02.149Z,52.60
2023-03-20T13:51:37.269Z,51.98
2023-03-20T13:54:22.917Z,51.76
2023-03-20T13:56:56.042Z,51.74
2023-03-20T13:59:58.897Z,52.32
2023-03-20T14:03:20.000Z,53.24
2023-03-20T14:05:54.244Z,54.32
2023-03-20T14:08:32.593Z,54.32
2023-03-20T14:11:37.756Z,54.61
2023-03-20T14:14:14.644Z,54.81
2023-03-20T14:16:43.511Z,55.04
2023-03-20T14:19:24.230Z,54.61
2023-03-20T14:21:55.924Z,54.50
2023-03-20T14:24:25.575Z,54.67
2023-03-20T14:26:57.929Z,54.84
2023-03-20T14:29:36.777Z,55.17
2023-03-20T14:32:25.876Z,55.28
2023-03-20T14:35:04.624Z,54.93
2023-03-20T14:37:39.756Z,55.27
2023-03-20T14:40:17.630Z,55.29
2023-03-20T14:42:55.835Z,55.18
2023-03-20T14:45:44.304Z,55.17
2023-03-20T14:48:27.917Z,55.53
2023-03-20T14:51:18.985Z,55.13
2023-03-20T14:54:02.263Z,55.10
2023-03-20T14:56:44.375Z,55.10
2023-03-20T14:59:21.247Z,55.03
2023-03-20T15:02:00.100Z,54.97
2023-03-20T15:04:53.924Z,54.92
2023-03-20T15:07:47.993Z,54.70
2023-03-20T15:10:19.061Z,54.71
2023-03-20T15:12:49.913Z,54.59
2023-03-20T15:15:28.169Z,55.19
2023-03-20T15:17:57.922Z,54.96
2023-03-20T15:20:32.765Z,54.91
2023-03-20T15:23:21.274Z,54.79
2023-03-20T15:25:58.478Z,54.78
2023-03-20T15:28:30.874Z,54.83
2023-03-20T15:31:01.397Z,54.97
2023-03-20T15:33:34.015Z,54.67
2023-03-20T15:36:09.384Z,54.63
2023-03-20T15:38:52.417Z,54.39
2023-03-20T15:41:34.434Z,53.72
2023-03-20T15:44:22.937Z,53.58
2023-03-20T15:47:00.141Z,53.26
2023-03-20T15:49:32.956Z,53.44
2023-03-20T15:52:07.163Z,53.23
2023-03-20T15:54:39.547Z,53.34
2023-03-20T15:57:09.002Z,53.84
2023-03-20T15:59:42.334Z,54.13
2023-03-20T16:02:15.935Z,54.20
2023-03-20T16:04:48.200Z,54.46
2023-03-20T16:07:25.628Z,54.71
2023-03-20T16:10:35.040Z,54.79
2023-03-20T16:13:06.693Z,56.03
2023-03-20T16:15:38.510Z,56.27
2023-03-20T16:18:12.638Z,56.80
2023-03-20T16:20:46.506Z,57.02
2023-03-20T16:23:22.283Z,57.50
2023-03-20T16:25:58.732Z,57.06
2023-03-20T16:28:31.023Z,58.13
2023-03-20T16:31:15.675Z,58.74
2023-03-20T16:33:48.476Z,59.14
2023-03-20T16:36:29.932Z,59.25
2023-03-20T16:39:07.290Z,59.66
2023-03-20T16:41:53.293Z,60.71
2023-03-20T16:44:29.426Z,61.62
2023-03-20T16:47:01.506Z,61.94
2023-03-20T16:50:17.162Z,62.56
2023-03-20T16:52:56.953Z,63.43
2023-03-20T16:55:29.380Z,63.73
2023-03-20T16:58:06.593Z,64.03
2023-03-20T17:00:45.646Z,64.27
2023-03-20T17:03:20.753Z,64.63
2023-03-20T17:05:58.051Z,64.72
2023-03-20T17:08:47.549Z,65.99
2023-03-20T17:11:33.280Z,66.82
2023-03-20T17:14:08.885Z,66.98
2023-03-20T17:16:48.946Z,67.08
2023-03-20T17:19:20.841Z,66.59
2023-03-20T17:21:54.619Z,67.00
2023-03-20T17:24:27.139Z,66.91
2023-03-20T17:27:05.261Z,67.59
2023-03-20T17:29:39.009Z,68.60
2023-03-20T17:32:20.061Z,68.54
2023-03-20T17:34:50.879Z,69.28
2023-03-20T17:37:30.041Z,69.70
2023-03-20T17:40:04.400Z,70.28
2023-03-20T17:42:34.523Z,69.65
2023-03-20T17:45:10.691Z,69.09
2023-03-20T17:47:41.246Z,69.11
2023-03-20T17:50:17.783Z,68.93
2023-03-20T17:52:48.289Z,68.96
2023-03-20T17:55:27.703Z,68.88
2023-03-20T17:57:59.445Z,68.89
2023-03-20T18:00:33.644Z,68.41
2023-03-20T18:03:03.320Z,68.87
2023-03-20T18:05:34.974Z,69.12
2023-03-20T18:08:14.580Z,69.27
2023-03-20T18:10:58.429Z,69.96
2023-03-20T18:13:30.140Z,69.92
2023-03-20T18:16:20.770Z,69.29
2023-03-20T18:18:53.594Z,69.55
2023-03-20T18:21:24.578Z,69.78
2023-03-20T18:23:56.241Z,70.10
2023-03-20T18:26:31.667Z,69.71
2023-03-20T18:29:13.692Z,69.78
2023-03-20T18:31:54.450Z,69.70
2023-03-20T18:34:27.093Z,69.70
2023-03-20T18:36:58.795Z,70.00
2023-03-20T18:39:30.429Z,70.07
2023-03-20T18:42:13.896Z,70.32
2023-03-20T18:44:52.302Z,70.66
2023-03-20T18:47:49.833Z,69.98
2023-03-20T18:50:31.709Z,69.98
2023-03-20T18:53:09.684Z,70.57
2023-03-20T18:55:47.934Z,70.94
2023-03-20T18:58:23.978Z,71.48
2023-03-20T19:00:54.882Z,71.29
2023-03-20T19:03:31.989Z,71.75
2023-03-20T19:06:21.574Z,71.62
2023-03-20T19:08:57.365Z,72.21
2023-03-20T19:11:28.741Z,71.79
2023-03-20T19:14:02.063Z,72.08
2023-03-20T19:16:44.545Z,71.88
2023-03-20T19:19:32.883Z,71.60
2023-03-20T19:22:26.502Z,71.90
2023-03-20T19:25:04.642Z,71.63
2023-03-20T19:27:43.683Z,71.62
2023-03-20T19:30:28.638Z,71.81
2023-03-20T19:33:08.530Z,71.80
2023-03-20T19:36:04.196Z,72.22
2023-03-20T19:39:02.962Z,72.22
2023-03-20T19:41:45.616Z,71.93
2023-03-20T19:44:20.407Z,72.49
2023-03-20T19:46:57.423Z,72.49
2023-03-20T19:49:40.735Z,72.63
2023-03-20T19:52:36.068Z,72.09
2023-03-20T19:55:31.046Z,72.51
2023-03-20T19:58:14.599Z,72.74
2023-03-20T20:00:59.207Z,73.50
2023-03-20T20:03:32.673Z,73.29
2023-03-20T20:06:10.789Z,73.09
2023-03-20T20:08:56.448Z,73.25
2023-03-20T20:11:41.309Z,73.01
2023-03-20T20:14:14.949Z,73.19
2023-03-20T20:17:02.655Z,72.51
2023-03-20T20:19:40.749Z,73.85
2023-03-20T20:22:24.969Z,72.84
2023-03-20T20:25:08.395Z,73.17
2023-03-20T20:27:47.562Z,73.64
2023-03-20T20:30:25.412Z,73.39
2023-03-20T20:33:09.515Z,73.56
2023-03-20T20:36:36.490Z,73.57
2023-03-20T20:38:58.846Z,73.72
2023-03-20T20:41:53.849Z,73.51
2023-03-20T20:44:43.752Z,73.61
2023-03-20T20:47:15.954Z,73.83
2023-03-20T20:49:56.286Z,73.78
2023-03-20T20:52:33.927Z,74.03
2023-03-20T20:55:33.912Z,74.01
2023-03-20T20:58:10.126Z,74.40
2023-03-20T21:00:52.558Z,74.28
2023-03-20T21:03:31.058Z,73.31
2023-03-20T21:06:11.240Z,74.12
2023-03-20T21:08:47.185Z,74.52
2023-03-20T21:11:20.654Z,74.26
2023-03-20T21:14:04.518Z,74.29
2023-03-20T21:16:43.219Z,74.09
2023-03-20T21:19:27.938Z,74.25
2023-03-20T21:21:57.348Z,74.07
2023-03-20T21:24:33.939Z,74.90
2023-03-20T21:27:09.155Z,74.34
2023-03-20T21:29:45.520Z,74.05
2023-03-20T21:32:33.294Z,74.53
2023-03-20T21:35:20.542Z,73.86
2023-03-20T21:38:47.681Z,73.84
2023-03-20T21:40:47.290Z,73.51
2023-03-20T21:43:17.647Z,73.63
2023-03-20T21:49:41.214Z,73.47
2023-03-20T22:07:26.483Z,73.27
2023-03-20T22:15:46.650Z,74.05
2023-03-20T22:19:11.932Z,74.75
2023-03-20T22:24:45.169Z,74.00
2023-03-20T22:33:37.183Z,75.29
2023-03-20T22:36:25.601Z,75.16
2023-03-20T22:39:15.975Z,75.53
2023-03-20T22:44:53.683Z,76.11
2023-03-20T22:47:18.010Z,76.01
2023-03-20T22:49:48.968Z,75.00
2023-03-20T22:52:45.488Z,76.08
2023-03-20T22:55:19.547Z,75.77
2023-03-20T22:58:06.423Z,76.14
2023-03-20T23:00:45.158Z,76.25
2023-03-20T23:03:29.684Z,77.09
2023-03-20T23:06:13.771Z,77.33
2023-03-20T23:08:52.295Z,77.80
2023-03-20T23:11:27.214Z,77.63
2023-03-20T23:13:58.475Z,77.87
2023-03-20T23:16:30.637Z,77.34
2023-03-20T23:19:06.456Z,77.25
2023-03-20T23:21:39.846Z,77.38
2023-03-20T23:24:16.913Z,78.31
2023-03-20T23:26:47.833Z,78.38
2023-03-20T23:29:19.644Z,78.31
2023-03-20T23:31:48.950Z,77.87
2023-03-20T23:34:22.453Z,78.57
2023-03-20T23:36:53.032Z,79.07
2023-03-20T23:39:24.475Z,78.76
2023-03-20T23:42:20.379Z,78.47
2023-03-20T23:44:58.709Z,78.82
2023-03-20T23:47:43.898Z,79.05
2023-03-20T23:53:19.436Z,79.00
2023-03-20T23:55:58.546Z,79.22
2023-03-20T23:58:37.501Z,78.54
